Time;durP1;ratioP1;P1;durP2;ratioP2;P2;SDS_P1;SDS_P2;PMS_P1;PMS_P2;Temp;Humidity;BMP_temperature;BMP_pressure;BME280_temperature;BME280_humidity;BME280_pressure;Samples;Min_cycle;Max_cycle;Signal;HPM_P1;HPM_P2
2023/07/21 00:01:43;;;;;;;1.07;0.97;;;18.30;92.70;;;;;;5032873;28;20840;-84
2023/07/21 00:04:11;;;;;;;1.07;0.80;;;18.30;93.40;;;;;;5032755;28;20450;-84
2023/07/21 00:06:37;;;;;;;1.00;0.80;;;18.30;92.80;;;;;;5032832;28;20482;-84
2023/07/21 00:09:06;;;;;;;0.80;0.60;;;18.30;92.90;;;;;;5032803;28;20450;-84
2023/07/21 00:11:33;;;;;;;0.70;0.60;;;18.30;92.90;;;;;;5032721;28;20506;-85
2023/07/21 00:13:59;;;;;;;1.00;0.70;;;18.30;92.30;;;;;;5034426;28;20964;-85
2023/07/21 00:16:27;;;;;;;2.20;0.70;;;18.30;92.20;;;;;;5036122;28;20454;-84
2023/07/21 00:18:54;;;;;;;1.53;0.80;;;18.30;92.50;;;;;;5036694;28;20821;-84
2023/07/21 00:21:22;;;;;;;0.80;0.80;;;18.40;92.10;;;;;;5036606;28;20509;-84
2023/07/21 00:23:49;;;;;;;3.07;0.90;;;18.30;92.00;;;;;;5036286;28;20455;-84
2023/07/21 00:26:16;;;;;;;2.17;0.60;;;18.30;92.60;;;;;;5036000;28;20470;-85
2023/07/21 00:28:43;;;;;;;0.90;0.80;;;18.30;92.50;;;;;;5036348;28;20794;-85
2023/07/21 00:31:10;;;;;;;0.60;0.60;;;18.30;92.70;;;;;;5036184;28;20474;-84
2023/07/21 00:33:37;;;;;;;0.80;0.80;;;18.30;92.70;;;;;;5036451;28;20455;-85
2023/07/21 00:36:05;;;;;;;1.40;1.20;;;18.30;92.90;;;;;;5035891;28;20485;-85
2023/07/21 00:38:33;;;;;;;0.93;0.63;;;18.30;92.70;;;;;;5036111;28;20453;-84
2023/07/21 00:41:00;;;;;;;2.70;0.87;;;18.30;92.80;;;;;;5036052;28;20470;-84
2023/07/21 00:43:27;;;;;;;0.87;0.60;;;18.20;92.70;;;;;;5035647;28;20942;-84
2023/07/21 00:45:54;;;;;;;0.80;0.70;;;18.20;92.40;;;;;;5035671;28;20965;-84
2023/07/21 00:48:20;;;;;;;0.60;0.60;;;18.30;92.60;;;;;;5035541;28;21027;-84
2023/07/21 00:50:50;;;;;;;1.30;0.60;;;18.30;91.90;;;;;;5035923;28;20477;-85
2023/07/21 00:53:17;;;;;;;0.70;0.70;;;18.30;91.50;;;;;;5035829;28;20457;-85
2023/07/21 00:55:47;;;;;;;2.07;0.80;;;18.30;91.30;;;;;;5035777;28;20458;-85
2023/07/21 00:58:14;;;;;;;0.97;0.60;;;18.40;91.60;;;;;;5035808;28;20470;-85
2023/07/21 01:00:41;;;;;;;0.93;0.90;;;18.40;91.70;;;;;;5036058;28;20490;-85
2023/07/21 01:03:11;;;;;;;0.60;0.60;;;18.40;91.80;;;;;;5036462;28;20453;-85
2023/07/21 01:05:41;;;;;;;1.00;0.70;;;18.40;92.30;;;;;;5035309;28;20434;-85
2023/07/21 01:08:09;;;;;;;0.87;0.67;;;18.50;92.30;;;;;;5036188;28;20466;-85
2023/07/21 01:10:38;;;;;;;1.60;0.70;;;18.40;92.50;;;;;;5035392;28;20508;-85
2023/07/21 01:13:07;;;;;;;1.70;1.10;;;18.50;92.70;;;;;;5035504;28;20457;-85
2023/07/21 01:15:37;;;;;;;0.70;0.70;;;18.40;92.70;;;;;;5035440;28;20546;-85
2023/07/21 01:18:06;;;;;;;1.10;0.80;;;18.40;92.70;;;;;;5035395;28;20431;-84
2023/07/21 01:20:34;;;;;;;0.80;0.77;;;18.40;92.70;;;;;;5035348;28;20474;-85
2023/07/21 01:23:07;;;;;;;1.80;0.57;;;18.30;91.70;;;;;;5035453;28;20454;-85
2023/07/21 01:25:38;;;;;;;1.10;0.60;;;18.30;91.60;;;;;;5034668;28;20478;-85
2023/07/21 01:28:07;;;;;;;0.70;0.60;;;18.30;91.50;;;;;;5035189;28;20470;-85
2023/07/21 01:30:36;;;;;;;1.60;0.70;;;18.30;91.40;;;;;;5034727;28;20474;-84
2023/07/21 01:33:05;;;;;;;1.23;0.80;;;18.30;92.00;;;;;;5035037;28;20469;-84
2023/07/21 01:35:33;;;;;;;1.07;0.60;;;18.30;91.90;;;;;;5034813;28;20458;-84
2023/07/21 01:38:00;;;;;;;0.53;0.53;;;18.30;92.30;;;;;;5035022;28;20470;-84
2023/07/21 01:40:28;;;;;;;1.37;0.60;;;18.30;92.50;;;;;;5034574;28;20974;-84
2023/07/21 01:42:56;;;;;;;0.50;0.50;;;18.20;92.60;;;;;;5034697;28;20927;-84
2023/07/21 01:45:25;;;;;;;3.80;0.80;;;18.20;92.90;;;;;;5035061;28;20451;-85
2023/07/21 01:47:56;;;;;;;0.70;0.70;;;18.30;92.30;;;;;;5034731;28;20572;-85
2023/07/21 01:50:24;;;;;;;0.90;0.60;;;18.30;92.80;;;;;;5034775;28;20478;-85
2023/07/21 01:52:52;;;;;;;0.60;0.60;;;18.20;93.00;;;;;;5034538;28;20462;-84
2023/07/21 01:55:23;;;;;;;2.17;0.80;;;18.30;92.80;;;;;;5034699;28;20458;-85
2023/07/21 01:57:54;;;;;;;3.07;0.60;;;18.20;92.90;;;;;;5034744;28;20433;-85
2023/07/21 02:00:25;;;;;;;0.77;0.77;;;18.20;93.40;;;;;;5034357;28;20458;-85
2023/07/21 02:02:53;;;;;;;6.03;0.77;;;18.20;93.60;;;;;;5034831;28;20810;-85
2023/07/21 02:05:22;;;;;;;0.50;0.50;;;18.10;93.30;;;;;;5034491;28;20455;-85
2023/07/21 02:07:49;;;;;;;1.63;0.90;;;18.10;94.00;;;;;;5034513;28;20478;-85
2023/07/21 02:10:16;;;;;;;1.13;0.50;;;18.00;94.00;;;;;;5034223;28;21021;-84
2023/07/21 02:12:43;;;;;;;1.50;0.63;;;18.00;94.40;;;;;;5034379;28;20457;-84
2023/07/21 02:15:10;;;;;;;0.90;0.70;;;17.90;94.50;;;;;;5034064;28;20445;-84
2023/07/21 02:17:39;;;;;;;0.97;0.70;;;17.90;95.00;;;;;;5034076;28;20451;-84
2023/07/21 02:20:08;;;;;;;0.73;0.60;;;17.80;95.00;;;;;;5034341;28;20442;-85
2023/07/21 02:22:36;;;;;;;0.60;0.60;;;17.80;95.00;;;;;;5034201;28;20455;-85
2023/07/21 02:25:04;;;;;;;0.60;0.60;;;17.70;95.00;;;;;;5033969;28;20544;-84
2023/07/21 02:27:32;;;;;;;2.33;0.77;;;17.60;95.50;;;;;;5034073;28;20463;-84
2023/07/21 02:29:58;;;;;;;0.87;0.73;;;17.60;95.20;;;;;;5033929;28;20459;-84
2023/07/21 02:32:25;;;;;;;1.53;0.80;;;17.50;95.20;;;;;;5033689;28;20461;-84
2023/07/21 02:34:53;;;;;;;0.90;0.73;;;17.50;95.00;;;;;;5033649;28;20446;-84
2023/07/21 02:37:20;;;;;;;0.80;0.80;;;17.50;95.20;;;;;;5032922;28;20551;-84
2023/07/21 02:39:47;;;;;;;0.50;0.50;;;17.50;95.40;;;;;;5033796;28;20450;-84
2023/07/21 02:42:13;;;;;;;0.60;0.50;;;17.50;95.30;;;;;;5033688;28;20474;-85
2023/07/21 02:44:40;;;;;;;1.10;1.00;;;17.50;95.40;;;;;;5033809;28;20450;-84
2023/07/21 02:47:09;;;;;;;1.00;1.00;;;17.50;95.10;;;;;;5033415;28;20458;-84
2023/07/21 02:49:35;;;;;;;0.73;0.70;;;17.50;95.20;;;;;;5033703;28;20505;-85
2023/07/21 02:52:04;;;;;;;0.87;0.60;;;17.50;95.50;;;;;;5033631;28;20474;-84
2023/07/21 02:54:31;;;;;;;0.57;0.57;;;17.50;95.80;;;;;;5033582;28;20784;-84
2023/07/21 02:56:58;;;;;;;1.73;0.70;;;17.50;95.70;;;;;;5033300;28;20441;-84
2023/07/21 02:59:26;;;;;;;0.70;0.70;;;17.50;95.50;;;;;;5033197;28;20454;-84
2023/07/21 03:01:55;;;;;;;1.23;0.80;;;17.40;95.40;;;;;;5033451;28;20887;-84
2023/07/21 03:04:23;;;;;;;1.00;0.90;;;17.40;95.20;;;;;;5033465;28;20454;-84
2023/07/21 03:06:50;;;;;;;1.90;0.57;;;17.30;95.50;;;;;;5033213;28;20923;-84
2023/07/21 03:09:18;;;;;;;0.70;0.70;;;17.30;95.60;;;;;;5033303;28;20483;-84
2023/07/21 03:11:45;;;;;;;1.33;0.70;;;17.20;96.00;;;;;;5033329;28;20466;-84
2023/07/21 03:14:12;;;;;;;0.90;0.63;;;17.10;96.30;;;;;;5033145;28;20446;-84
2023/07/21 03:16:39;;;;;;;0.60;0.60;;;17.10;96.50;;;;;;5033868;28;20473;-84
2023/07/21 03:19:06;;;;;;;1.60;0.80;;;17.10;96.70;;;;;;5033319;28;20451;-84
2023/07/21 03:21:33;;;;;;;3.63;0.70;;;17.10;96.70;;;;;;5033137;28;20482;-84
2023/07/21 03:24:00;;;;;;;0.90;0.63;;;17.10;96.40;;;;;;5033003;28;20450;-84
2023/07/21 03:26:28;;;;;;;1.73;0.70;;;17.00;96.50;;;;;;5032900;28;20486;-84
2023/07/21 03:28:55;;;;;;;0.70;0.70;;;17.00;96.70;;;;;;5033448;28;20478;-84
2023/07/21 03:31:22;;;;;;;0.60;0.60;;;17.00;96.50;;;;;;5033254;28;20482;-84
2023/07/21 03:33:49;;;;;;;0.60;0.60;;;17.00;96.90;;;;;;5033200;28;20450;-84
2023/07/21 03:36:16;;;;;;;0.70;0.70;;;17.00;96.90;;;;;;5032896;28;20522;-84
2023/07/21 03:38:43;;;;;;;0.70;0.60;;;17.00;96.60;;;;;;5032872;28;21009;-84
2023/07/21 03:41:10;;;;;;;1.87;0.73;;;17.00;96.60;;;;;;5033192;28;20489;-84
2023/07/21 03:43:38;;;;;;;1.37;0.80;;;16.90;96.50;;;;;;5032846;28;20432;-85
2023/07/21 03:46:06;;;;;;;0.50;0.50;;;16.90;96.60;;;;;;5033239;28;20462;-84
2023/07/21 03:48:34;;;;;;;0.90;0.57;;;16.90;96.70;;;;;;5036254;28;20850;-84
2023/07/21 03:51:03;;;;;;;1.10;0.60;;;16.80;96.90;;;;;;5037181;28;20481;-84
2023/07/21 03:53:32;;;;;;;0.60;0.60;;;16.90;97.50;;;;;;5036974;28;20470;-84
2023/07/21 03:55:59;;;;;;;0.93;0.57;;;16.90;96.90;;;;;;5036977;28;20500;-84
2023/07/21 03:58:26;;;;;;;0.70;0.70;;;16.90;96.70;;;;;;5036658;28;20443;-84
2023/07/21 04:00:55;;;;;;;2.00;0.70;;;16.80;96.80;;;;;;5036715;28;20848;-84
2023/07/21 04:03:24;;;;;;;1.00;0.87;;;16.80;96.60;;;;;;5036483;28;20942;-84
2023/07/21 04:05:51;;;;;;;2.00;0.60;;;16.80;96.80;;;;;;5037018;28;20447;-84
2023/07/21 04:08:18;;;;;;;0.90;0.63;;;16.80;96.90;;;;;;5036663;28;20481;-84
2023/07/21 04:10:45;;;;;;;2.00;0.60;;;16.80;97.20;;;;;;5036550;28;20470;-84
2023/07/21 04:13:12;;;;;;;0.77;0.60;;;16.80;97.30;;;;;;5036537;28;20446;-84
2023/07/21 04:15:38;;;;;;;0.80;0.80;;;16.80;97.40;;;;;;5036474;28;20439;-84
2023/07/21 04:18:06;;;;;;;0.70;0.70;;;16.80;97.60;;;;;;5036473;28;20542;-84
2023/07/21 04:20:33;;;;;;;1.80;0.97;;;16.90;97.80;;;;;;5036432;28;20455;-84
2023/07/21 04:23:00;;;;;;;2.10;0.80;;;16.90;97.90;;;;;;5036391;28;20868;-84
2023/07/21 04:25:27;;;;;;;1.10;1.03;;;16.90;97.90;;;;;;5036033;28;20989;-84
2023/07/21 04:27:55;;;;;;;0.70;0.60;;;17.00;98.40;;;;;;5036220;28;20482;-84
2023/07/21 04:30:22;;;;;;;1.70;1.00;;;17.00;98.50;;;;;;5036174;28;20470;-84
2023/07/21 04:32:49;;;;;;;0.70;0.70;;;17.10;98.90;;;;;;5036144;28;20441;-84
2023/07/21 04:35:17;;;;;;;0.90;0.60;;;17.10;98.20;;;;;;5035849;28;20458;-84
2023/07/21 04:37:44;;;;;;;0.80;0.80;;;17.10;97.80;;;;;;5036322;28;20445;-84
2023/07/21 04:40:11;;;;;;;2.30;0.90;;;17.20;98.20;;;;;;5035682;28;20505;-84
2023/07/21 04:42:39;;;;;;;0.70;0.60;;;17.30;98.70;;;;;;5035983;28;20454;-84
2023/07/21 04:45:11;;;;;;;2.17;0.60;;;17.40;98.50;;;;;;5036033;28;20451;-84
2023/07/21 04:47:40;;;;;;;0.70;0.60;;;17.40;98.70;;;;;;5036125;28;20431;-84
2023/07/21 04:50:08;;;;;;;1.70;0.80;;;17.50;98.50;;;;;;5035814;28;20478;-84
2023/07/21 04:52:37;;;;;;;1.07;0.60;;;17.60;98.80;;;;;;5035850;28;20450;-84
2023/07/21 04:55:05;;;;;;;2.63;1.07;;;17.60;98.90;;;;;;5035664;28;20465;-84
2023/07/21 04:57:32;;;;;;;2.70;0.93;;;17.60;98.70;;;;;;5035783;28;20442;-84
2023/07/21 05:00:00;;;;;;;0.70;0.70;;;17.60;98.60;;;;;;5034907;28;20446;-85
2023/07/21 05:02:28;;;;;;;1.20;0.63;;;17.70;98.70;;;;;;5035722;28;20509;-84
2023/07/21 05:04:57;;;;;;;1.37;0.60;;;17.70;98.40;;;;;;5035647;28;20509;-84
2023/07/21 05:07:24;;;;;;;0.80;0.60;;;17.70;98.10;;;;;;5035610;28;20481;-84
2023/07/21 05:09:55;;;;;;;1.00;0.70;;;17.80;97.70;;;;;;5035414;28;20548;-85
2023/07/21 05:12:25;;;;;;;1.53;0.87;;;17.90;98.50;;;;;;5035588;28;20457;-85
2023/07/21 05:14:52;;;;;;;1.63;0.83;;;18.00;99.00;;;;;;5035474;28;20435;-85
2023/07/21 05:17:19;;;;;;;1.13;0.60;;;18.00;98.80;;;;;;5035459;28;20440;-84
2023/07/21 05:19:46;;;;;;;1.13;0.80;;;18.00;98.90;;;;;;5035367;28;20450;-84
2023/07/21 05:22:13;;;;;;;0.90;0.90;;;18.00;99.50;;;;;;5034992;28;20824;-84
2023/07/21 05:24:40;;;;;;;1.27;1.03;;;18.00;99.40;;;;;;5035233;28;20462;-84
2023/07/21 05:27:08;;;;;;;1.00;0.70;;;18.10;99.90;;;;;;5035242;28;20450;-84
2023/07/21 05:29:35;;;;;;;0.60;0.60;;;18.10;99.90;;;;;;5035062;28;20509;-84
2023/07/21 05:32:03;;;;;;;2.20;0.67;;;18.20;99.80;;;;;;5035031;28;20467;-85
2023/07/21 05:34:32;;;;;;;1.30;0.77;;;18.10;99.80;;;;;;5034698;28;20490;-85
2023/07/21 05:36:59;;;;;;;2.60;0.70;;;18.10;99.90;;;;;;5034922;28;20446;-84
2023/07/21 05:39:28;;;;;;;1.00;0.90;;;18.20;99.90;;;;;;5035107;28;20443;-85
2023/07/21 05:41:56;;;;;;;0.77;0.77;;;18.20;99.90;;;;;;5034736;28;20474;-85
2023/07/21 05:44:26;;;;;;;1.30;0.97;;;18.30;99.30;;;;;;5035691;28;20442;-85
2023/07/21 05:46:52;;;;;;;1.17;0.50;;;18.40;99.00;;;;;;5035352;28;20497;-84
2023/07/21 05:49:19;;;;;;;1.63;0.90;;;18.50;99.30;;;;;;5034491;28;20521;-85
2023/07/21 05:51:46;;;;;;;1.93;0.90;;;18.50;99.00;;;;;;5034591;28;20474;-85
2023/07/21 05:54:12;;;;;;;0.90;0.60;;;18.60;99.10;;;;;;5034747;28;20450;-85
2023/07/21 05:56:40;;;;;;;1.00;0.80;;;18.70;99.40;;;;;;5034626;28;20450;-84
2023/07/21 05:59:07;;;;;;;1.03;0.90;;;18.90;99.20;;;;;;5034252;28;20553;-85
2023/07/21 06:01:36;;;;;;;0.73;0.70;;;19.00;98.80;;;;;;5034548;28;20474;-85
2023/07/21 06:04:04;;;;;;;1.27;0.77;;;19.10;98.40;;;;;;5034432;28;20459;-85
2023/07/21 06:06:31;;;;;;;1.13;0.80;;;19.20;98.10;;;;;;5034494;28;20454;-85
2023/07/21 06:08:58;;;;;;;1.13;0.70;;;19.30;98.00;;;;;;5034367;28;20478;-85
2023/07/21 06:11:26;;;;;;;0.93;0.83;;;19.40;98.20;;;;;;5033312;28;20482;-85
2023/07/21 06:13:53;;;;;;;1.27;0.80;;;19.50;97.70;;;;;;5034014;28;20443;-85
2023/07/21 06:16:22;;;;;;;0.90;0.90;;;19.60;97.70;;;;;;5034370;28;20501;-85
2023/07/21 06:18:51;;;;;;;1.20;0.83;;;19.70;97.30;;;;;;5034220;28;20451;-85
2023/07/21 06:21:19;;;;;;;0.90;0.77;;;19.80;97.30;;;;;;5034126;28;20493;-85
2023/07/21 06:23:47;;;;;;;0.90;0.70;;;19.90;97.40;;;;;;5034224;28;20453;-85
2023/07/21 06:26:14;;;;;;;4.70;0.83;;;20.00;97.60;;;;;;5033870;28;20849;-85
2023/07/21 06:28:41;;;;;;;5.40;0.80;;;20.00;96.30;;;;;;5033775;28;20521;-85
2023/07/21 06:31:09;;;;;;;1.70;0.80;;;20.10;96.80;;;;;;5033987;28;20524;-85
2023/07/21 06:33:37;;;;;;;0.40;0.40;;;20.10;96.80;;;;;;5033665;28;20454;-84
2023/07/21 06:36:05;;;;;;;1.27;0.50;;;20.10;95.20;;;;;;5034373;28;20476;-85
2023/07/21 06:38:33;;;;;;;1.33;0.70;;;20.20;95.20;;;;;;5033676;28;20526;-85
2023/07/21 06:41:00;;;;;;;0.70;0.60;;;20.20;95.90;;;;;;5034482;28;20462;-84
2023/07/21 06:43:27;;;;;;;1.27;0.80;;;20.30;95.30;;;;;;5034155;28;20461;-85
2023/07/21 06:45:53;;;;;;;0.60;0.60;;;20.30;95.20;;;;;;5034553;28;20454;-85
2023/07/21 06:48:20;;;;;;;1.47;0.67;;;20.30;95.00;;;;;;5034024;28;20450;-85
2023/07/21 06:50:47;;;;;;;1.37;1.00;;;20.40;93.90;;;;;;5033589;28;20466;-85
2023/07/21 06:53:17;;;;;;;0.57;0.50;;;20.50;93.60;;;;;;5033770;28;20450;-85
2023/07/21 06:55:44;;;;;;;1.10;0.60;;;20.70;93.60;;;;;;5033687;28;20798;-85
2023/07/21 06:58:11;;;;;;;0.70;0.60;;;21.00;93.80;;;;;;5033754;28;20525;-85
2023/07/21 07:00:38;;;;;;;1.67;0.70;;;21.20;93.00;;;;;;5033494;28;20465;-85
2023/07/21 07:03:04;;;;;;;2.13;0.70;;;21.50;92.30;;;;;;5033925;28;20537;-86
2023/07/21 07:05:31;;;;;;;0.93;0.60;;;21.60;92.50;;;;;;5033449;28;20442;-86
2023/07/21 07:07:58;;;;;;;1.37;0.87;;;22.00;91.60;;;;;;5033363;28;20995;-86
2023/07/21 07:10:26;;;;;;;0.67;0.67;;;22.20;91.80;;;;;;5033162;28;20490;-85
2023/07/21 07:12:53;;;;;;;0.70;0.60;;;22.40;91.70;;;;;;5033839;28;20922;-85
2023/07/21 07:15:20;;;;;;;0.70;0.60;;;22.50;91.20;;;;;;5033428;28;20806;-85
2023/07/21 07:17:47;;;;;;;0.70;0.57;;;22.60;91.00;;;;;;5033575;28;20799;-85
2023/07/21 07:20:14;;;;;;;0.70;0.70;;;22.70;91.10;;;;;;5033584;28;20576;-86
2023/07/21 07:22:41;;;;;;;0.80;0.70;;;22.70;91.30;;;;;;5033616;28;20549;-86
2023/07/21 07:25:09;;;;;;;2.80;0.70;;;22.60;91.50;;;;;;5033162;28;20235;-85
2023/07/21 07:27:37;;;;;;;0.93;0.83;;;22.50;91.20;;;;;;5033469;28;20208;-85
2023/07/21 07:30:05;;;;;;;0.70;0.70;;;22.60;91.80;;;;;;5033261;28;20493;-86
2023/07/21 07:32:32;;;;;;;2.03;0.70;;;22.80;91.50;;;;;;5033315;28;20458;-85
2023/07/21 07:34:58;;;;;;;1.77;0.80;;;23.00;91.50;;;;;;5033342;28;20206;-86
2023/07/21 07:37:27;;;;;;;0.60;0.60;;;23.20;90.50;;;;;;5033019;28;20675;-86
2023/07/21 07:39:54;;;;;;;1.85;0.50;;;23.40;87.90;;;;;;5033088;28;20317;-86
2023/07/21 07:42:22;;;;;;;4.30;0.80;;;23.60;87.80;;;;;;5033465;28;20203;-86
2023/07/21 07:44:53;;;;;;;0.60;0.60;;;23.60;87.10;;;;;;5033261;28;20597;-86
2023/07/21 07:47:20;;;;;;;0.70;0.70;;;23.70;88.60;;;;;;5033778;28;20200;-87
2023/07/21 07:49:47;;;;;;;0.60;0.50;;;24.00;87.00;;;;;;5033227;28;20219;-86
2023/07/21 07:52:15;;;;;;;1.40;0.70;;;24.00;87.90;;;;;;5033224;28;20233;-85
2023/07/21 07:54:42;;;;;;;0.70;0.50;;;24.00;87.40;;;;;;5033141;28;20254;-87
2023/07/21 07:57:08;;;;;;;1.75;0.70;;;24.10;87.20;;;;;;5032804;28;20579;-86
2023/07/21 07:59:35;;;;;;;0.70;0.70;;;24.40;85.10;;;;;;5032870;28;20745;-86
2023/07/21 08:02:03;;;;;;;1.67;0.70;;;24.40;85.80;;;;;;5032952;28;20331;-86
2023/07/21 08:04:30;;;;;;;0.60;0.60;;;24.40;84.00;;;;;;5032834;28;20200;-87
2023/07/21 08:06:57;;;;;;;0.60;0.55;;;24.40;84.10;;;;;;5032838;28;20207;-86
2023/07/21 08:09:24;;;;;;;0.57;0.57;;;24.30;84.80;;;;;;5032938;28;20220;-86
2023/07/21 08:11:51;;;;;;;1.70;0.60;;;24.40;85.70;;;;;;5032627;28;20691;-86
2023/07/21 08:14:17;;;;;;;0.52;0.52;;;24.40;85.40;;;;;;5032972;28;20207;-86
2023/07/21 08:16:44;;;;;;;0.68;0.68;;;24.50;84.60;;;;;;5033060;28;20230;-86
2023/07/21 08:19:12;;;;;;;0.77;0.77;;;24.70;84.10;;;;;;5032804;28;20199;-87
2023/07/21 08:21:39;;;;;;;0.98;0.80;;;24.90;81.90;;;;;;5033104;28;20219;-87
2023/07/21 08:24:06;;;;;;;1.13;0.50;;;25.00;82.30;;;;;;5034001;28;20199;-86
2023/07/21 08:26:33;;;;;;;0.68;0.68;;;25.10;80.90;;;;;;5033150;28;20238;-86
2023/07/21 08:28:59;;;;;;;0.60;0.60;;;24.90;80.70;;;;;;5033294;28;20203;-86
2023/07/21 08:31:26;;;;;;;0.50;0.50;;;24.80;80.80;;;;;;5032849;28;20223;-86
2023/07/21 08:33:54;;;;;;;0.85;0.80;;;24.80;82.00;;;;;;5033151;28;20211;-87
2023/07/21 08:36:23;;;;;;;1.27;1.15;;;25.00;81.00;;;;;;5037609;28;20203;-86
2023/07/21 08:38:51;;;;;;;2.53;0.70;;;25.20;80.20;;;;;;5036779;28;20204;-87
2023/07/21 08:41:20;;;;;;;1.25;0.70;;;25.20;79.10;;;;;;5037412;28;20274;-86
2023/07/21 08:43:48;;;;;;;1.60;0.60;;;25.10;79.80;;;;;;5036899;28;20200;-87
2023/07/21 08:46:15;;;;;;;0.60;0.60;;;25.10;81.00;;;;;;5037837;28;20207;-88
2023/07/21 08:48:42;;;;;;;0.77;0.60;;;25.20;77.80;;;;;;5037359;28;20338;-87
2023/07/21 08:51:09;;;;;;;0.75;0.40;;;25.20;78.20;;;;;;5036187;28;20234;-86
2023/07/21 08:53:37;;;;;;;0.40;0.40;;;25.30;76.00;;;;;;5037201;28;20203;-86
2023/07/21 08:56:05;;;;;;;1.00;0.60;;;25.20;76.30;;;;;;5039200;28;20199;-86
2023/07/21 08:58:31;;;;;;;2.03;0.70;;;25.30;76.10;;;;;;5036908;28;20199;-86
2023/07/21 09:00:59;;;;;;;0.57;0.52;;;25.40;77.30;;;;;;5036485;28;20216;-87
2023/07/21 09:03:28;;;;;;;1.60;0.50;;;25.40;75.70;;;;;;5036423;28;20211;-87
2023/07/21 09:05:57;;;;;;;0.60;0.60;;;25.60;76.80;;;;;;5037285;28;20214;-87
2023/07/21 09:08:27;;;;;;;2.20;0.95;;;25.70;73.70;;;;;;5037438;28;20215;-86
2023/07/21 09:10:58;;;;;;;1.08;0.60;;;25.80;73.60;;;;;;5036376;28;20281;-87
2023/07/21 09:13:25;;;;;;;0.70;0.60;;;26.00;74.90;;;;;;5036848;28;20199;-85
2023/07/21 09:15:53;;;;;;;1.40;0.65;;;26.10;72.00;;;;;;5036213;28;20238;-85
2023/07/21 09:18:25;;;;;;;1.50;0.88;;;26.30;74.70;;;;;;5036150;28;20203;-85
2023/07/21 09:20:52;;;;;;;0.77;0.70;;;26.30;75.00;;;;;;5036053;28;20723;-85
2023/07/21 09:23:20;;;;;;;0.63;0.63;;;26.50;73.20;;;;;;5036544;28;20210;-85
2023/07/21 09:25:55;;;;;;;0.50;0.50;;;26.60;74.90;;;;;;5035523;28;20239;-86
2023/07/21 09:28:37;;;;;;;0.70;0.70;;;26.50;74.80;;;;;;5036052;28;20194;-85
2023/07/21 09:31:04;;;;;;;0.60;0.60;;;26.50;74.80;;;;;;5035599;28;20238;-85
2023/07/21 09:33:32;;;;;;;0.68;0.50;;;26.50;74.00;;;;;;5040240;28;20679;-85
2023/07/21 09:36:06;;;;;;;0.52;0.52;;;26.50;72.00;;;;;;5037468;28;20207;-84
2023/07/21 09:38:35;;;;;;;1.50;0.70;;;26.50;72.40;;;;;;5036011;28;20206;-85
2023/07/21 09:41:04;;;;;;;0.75;0.75;;;26.70;71.00;;;;;;5036249;28;20219;-86
2023/07/21 09:43:32;;;;;;;0.73;0.60;;;26.80;69.20;;;;;;5035504;28;20203;-85
2023/07/21 09:46:01;;;;;;;0.50;0.50;;;26.80;69.50;;;;;;5034953;28;20203;-86
2023/07/21 09:48:28;;;;;;;0.70;0.50;;;26.80;71.20;;;;;;5035342;28;20203;-85
2023/07/21 09:50:58;;;;;;;0.60;0.60;;;26.80;70.10;;;;;;5035284;28;20231;-85
2023/07/21 09:53:29;;;;;;;1.60;0.60;;;26.90;67.10;;;;;;5035544;28;20188;-85
2023/07/21 09:55:59;;;;;;;0.80;0.80;;;27.00;69.00;;;;;;5034839;28;20191;-85
2023/07/21 09:58:30;;;;;;;0.60;0.60;;;27.00;68.80;;;;;;5034926;28;20206;-85
2023/07/21 10:01:02;;;;;;;0.52;0.52;;;27.00;70.50;;;;;;5034933;28;20227;-85
2023/07/21 10:03:29;;;;;;;0.82;0.50;;;27.10;69.70;;;;;;5034614;28;20238;-84
2023/07/21 10:05:56;;;;;;;0.60;0.60;;;27.20;70.80;;;;;;5034663;28;20211;-84
2023/07/21 10:08:24;;;;;;;0.70;0.70;;;27.10;67.40;;;;;;5035178;28;20193;-86
2023/07/21 10:10:51;;;;;;;2.05;0.55;;;27.00;68.90;;;;;;5034905;28;20683;-85
2023/07/21 10:13:19;;;;;;;0.75;0.75;;;26.90;70.10;;;;;;5034809;28;20208;-84
2023/07/21 10:15:49;;;;;;;0.50;0.50;;;26.80;69.90;;;;;;5034536;28;20253;-85
2023/07/21 10:18:15;;;;;;;0.70;0.70;;;26.70;69.50;;;;;;5034864;28;20281;-85
2023/07/21 10:20:49;;;;;;;1.30;1.13;;;26.80;69.30;;;;;;5034977;28;20239;-85
2023/07/21 10:23:17;;;;;;;0.80;0.80;;;26.70;69.50;;;;;;5034891;28;20192;-84
2023/07/21 10:25:48;;;;;;;0.95;0.50;;;26.60;70.40;;;;;;5034237;28;20239;-84
2023/07/21 10:28:15;;;;;;;0.90;0.50;;;26.40;69.90;;;;;;5034427;28;20209;-85
2023/07/21 10:30:42;;;;;;;0.50;0.50;;;26.30;70.30;;;;;;5034051;28;20223;-84
2023/07/21 10:33:17;;;;;;;1.92;0.63;;;26.30;70.10;;;;;;5034937;28;20195;-85
2023/07/21 10:35:43;;;;;;;0.60;0.60;;;26.40;68.70;;;;;;5034659;28;20187;-85
2023/07/21 10:38:24;;;;;;;0.63;0.63;;;26.30;68.20;;;;;;5034397;28;20655;-84
2023/07/21 10:40:51;;;;;;;1.15;0.98;;;26.50;70.90;;;;;;5034761;28;20227;-84
2023/07/21 10:43:18;;;;;;;1.40;0.80;;;26.70;71.90;;;;;;5034167;28;20196;-84
2023/07/21 10:45:54;;;;;;;0.93;0.70;;;26.80;69.20;;;;;;5034486;28;20199;-84
2023/07/21 10:48:25;;;;;;;0.60;0.60;;;26.80;68.00;;;;;;5035027;28;20191;-86
2023/07/21 10:50:56;;;;;;;1.70;0.73;;;26.80;67.90;;;;;;5034932;28;20227;-84
2023/07/21 10:53:23;;;;;;;3.05;0.65;;;26.80;66.90;;;;;;5034582;28;20214;-85
2023/07/21 10:55:52;;;;;;;0.68;0.60;;;26.70;68.40;;;;;;5034565;28;20211;-85
2023/07/21 10:58:19;;;;;;;0.90;0.70;;;26.60;68.40;;;;;;5033814;28;20203;-84
2023/07/21 11:00:47;;;;;;;0.75;0.60;;;26.60;70.50;;;;;;5033875;28;20231;-84
2023/07/21 11:03:15;;;;;;;1.95;0.73;;;26.50;69.30;;;;;;5033651;28;20222;-85
2023/07/21 11:05:43;;;;;;;0.82;0.60;;;26.50;68.10;;;;;;5033410;28;20262;-84
2023/07/21 11:08:13;;;;;;;0.60;0.60;;;26.30;68.90;;;;;;5033751;28;20203;-84
2023/07/21 11:10:40;;;;;;;0.60;0.60;;;26.20;70.80;;;;;;5033673;28;20229;-84
2023/07/21 11:13:07;;;;;;;0.95;0.95;;;26.00;70.70;;;;;;5033465;28;20210;-84
2023/07/21 11:15:36;;;;;;;0.60;0.50;;;25.70;70.80;;;;;;5033233;28;20207;-84
2023/07/21 11:18:04;;;;;;;1.60;0.77;;;25.50;71.30;;;;;;5033507;28;20207;-84
2023/07/21 11:20:31;;;;;;;0.60;0.60;;;25.30;71.90;;;;;;5033645;28;20219;-84
2023/07/21 11:23:00;;;;;;;0.80;0.80;;;25.10;71.80;;;;;;5033555;28;20203;-83
2023/07/21 11:25:26;;;;;;;0.70;0.70;;;24.90;74.00;;;;;;5033341;28;20231;-84
2023/07/21 11:27:54;;;;;;;0.80;0.60;;;24.80;75.50;;;;;;5033682;28;20286;-84
2023/07/21 11:30:21;;;;;;;0.85;0.85;;;24.70;74.30;;;;;;5032969;28;20227;-84
2023/07/21 11:32:48;;;;;;;0.70;0.70;;;24.50;75.10;;;;;;5033517;28;20282;-84
2023/07/21 11:35:15;;;;;;;0.57;0.50;;;24.40;75.50;;;;;;5033011;28;20749;-84
2023/07/21 11:37:44;;;;;;;0.70;0.60;;;24.20;75.60;;;;;;5033556;28;20624;-85
2023/07/21 11:40:18;;;;;;;1.35;0.88;;;24.10;76.50;;;;;;5033415;28;20188;-84
2023/07/21 11:42:47;;;;;;;0.82;0.82;;;24.00;76.20;;;;;;5033432;28;20646;-84
2023/07/21 11:45:37;;;;;;;0.95;0.60;;;23.90;77.10;;;;;;5033210;28;20203;-84
2023/07/21 11:48:14;;;;;;;2.00;0.80;;;23.80;77.70;;;;;;5033295;28;20199;-84
2023/07/21 11:50:42;;;;;;;3.60;0.70;;;23.70;76.90;;;;;;5033045;28;20729;-84
2023/07/21 11:53:10;;;;;;;1.15;0.73;;;23.70;78.20;;;;;;5034219;28;20563;-84
2023/07/21 11:55:39;;;;;;;1.13;0.73;;;23.40;88.20;;;;;;5035888;28;20207;-86
2023/07/21 11:58:05;;;;;;;0.80;0.60;;;23.10;91.10;;;;;;5033410;28;20214;-85
2023/07/21 12:00:33;;;;;;;0.60;0.60;;;22.60;94.90;;;;;;5033471;28;20219;-85
2023/07/21 12:03:00;;;;;;;0.60;0.60;;;22.10;98.10;;;;;;5033307;28;20446;-86
2023/07/21 12:05:27;;;;;;;1.17;0.70;;;21.60;99.90;;;;;;5033303;28;20460;-85
2023/07/21 12:07:54;;;;;;;1.33;0.73;;;21.30;99.90;;;;;;5033397;28;20446;-85
2023/07/21 12:10:22;;;;;;;0.50;0.50;;;20.90;99.90;;;;;;5036766;28;20539;-85
2023/07/21 12:12:52;;;;;;;0.70;0.60;;;20.60;99.90;;;;;;5036701;28;20446;-85
2023/07/21 12:15:19;;;;;;;0.67;0.67;;;20.40;99.90;;;;;;5036743;28;20489;-84
2023/07/21 12:17:46;;;;;;;1.73;0.70;;;20.30;99.90;;;;;;5036527;28;20972;-84
2023/07/21 12:20:14;;;;;;;1.40;0.87;;;20.20;99.90;;;;;;5036899;28;20458;-85
2023/07/21 12:22:42;;;;;;;1.03;0.73;;;20.00;99.90;;;;;;5036816;28;20446;-85
2023/07/21 12:25:10;;;;;;;5.80;1.37;;;19.90;99.90;;;;;;5036306;28;20486;-85
2023/07/21 12:27:38;;;;;;;0.80;0.80;;;20.10;99.90;;;;;;5036571;28;20520;-84
2023/07/21 12:30:08;;;;;;;1.57;1.23;;;20.10;99.90;;;;;;5037040;28;20446;-84
2023/07/21 12:32:35;;;;;;;0.67;0.67;;;20.20;99.90;;;;;;5036549;28;20866;-85
2023/07/21 12:35:02;;;;;;;1.37;0.80;;;20.20;99.90;;;;;;5036040;28;20488;-84
2023/07/21 12:37:29;;;;;;;1.33;0.90;;;20.40;99.90;;;;;;5036370;28;20445;-84
2023/07/21 12:39:56;;;;;;;0.83;0.83;;;20.40;99.90;;;;;;5036113;28;20457;-84
2023/07/21 12:42:27;;;;;;;1.57;0.80;;;20.60;99.90;;;;;;5036164;28;20532;-84
2023/07/21 12:44:54;;;;;;;4.20;0.60;;;20.60;99.90;;;;;;5036211;28;20464;-84
2023/07/21 12:47:22;;;;;;;1.03;0.93;;;20.70;99.90;;;;;;5035859;28;20430;-84
2023/07/21 12:49:49;;;;;;;0.60;0.53;;;20.80;99.90;;;;;;5035872;28;20442;-84
2023/07/21 12:52:16;;;;;;;0.70;0.70;;;20.90;99.90;;;;;;5035876;28;20516;-84